createdAt,value
2018-05-25T00:01:57.111Z,75.30
2018-05-25T00:04:24.641Z,75.50
2018-05-25T00:06:52.164Z,75.50
2018-05-25T00:09:20.339Z,75.20
2018-05-25T00:11:47.859Z,75.10
2018-05-25T00:14:15.425Z,74.80
2018-05-25T00:16:42.965Z,74.90
2018-05-25T00:19:11.259Z,75.20
2018-05-25T00:21:38.772Z,75.20
2018-05-25T00:24:06.292Z,75.10
2018-05-25T00:26:33.811Z,75.10
2018-05-25T00:29:02.098Z,74.90
2018-05-25T00:31:29.687Z,74.80
2018-05-25T00:33:57.216Z,74.90
2018-05-25T00:36:25.510Z,74.90
2018-05-25T00:38:53.082Z,74.90
2018-05-25T00:41:20.591Z,75.10
2018-05-25T00:43:48.109Z,75.30
2018-05-25T00:46:15.632Z,75.20
2018-05-25T00:48:43.152Z,75.30
2018-05-25T00:51:10.675Z,74.80
2018-05-25T00:53:38.203Z,74.70
2018-05-25T00:56:05.722Z,74.70
2018-05-25T00:58:33.253Z,74.90
2018-05-25T01:01:00.770Z,75.30
2018-05-25T01:03:28.287Z,75.20
2018-05-25T01:05:55.811Z,74.90
2018-05-25T01:08:23.332Z,74.40
2018-05-25T01:10:50.868Z,74.90
2018-05-25T01:13:18.416Z,74.90
2018-05-25T01:15:45.947Z,74.90
2018-05-25T01:18:14.235Z,74.90
2018-05-25T01:20:41.754Z,74.70
2018-05-25T01:23:09.278Z,75.00
2018-05-25T01:25:36.791Z,75.00
2018-05-25T01:28:04.313Z,75.10
2018-05-25T01:30:31.831Z,75.30
2018-05-25T01:33:00.112Z,75.70
2018-05-25T01:35:27.648Z,75.60
2018-05-25T01:37:55.174Z,75.20
2018-05-25T01:40:22.686Z,75.20
2018-05-25T01:42:50.205Z,75.40
2018-05-25T01:45:17.727Z,75.40
2018-05-25T01:47:45.256Z,75.50
2018-05-25T01:50:12.779Z,75.80
2018-05-25T01:52:40.303Z,75.80
2018-05-25T01:55:07.827Z,75.70
2018-05-25T01:57:35.354Z,75.80
2018-05-25T02:00:02.880Z,75.80
2018-05-25T02:02:30.404Z,75.90
2018-05-25T02:04:57.929Z,75.80
2018-05-25T02:07:25.446Z,75.60
2018-05-25T02:09:52.966Z,75.90
2018-05-25T02:12:20.494Z,75.70
2018-05-25T02:14:48.015Z,76.10
2018-05-25T02:17:16.302Z,76.50
2018-05-25T02:19:43.830Z,76.10
2018-05-25T02:22:11.359Z,76.10
2018-05-25T02:24:38.887Z,76.30
2018-05-25T02:27:07.171Z,76.50
2018-05-25T02:29:34.687Z,76.40
2018-05-25T02:32:02.207Z,76.50
2018-05-25T02:34:29.741Z,76.40
2018-05-25T02:36:58.024Z,76.80
2018-05-25T02:39:25.555Z,76.70
2018-05-25T02:41:53.101Z,76.50
2018-05-25T02:44:20.633Z,76.40
2018-05-25T02:46:48.184Z,76.10
2018-05-25T02:49:15.700Z,76.30
2018-05-25T02:51:43.290Z,76.70
2018-05-25T02:54:10.808Z,76.50
2018-05-25T02:56:38.336Z,76.60
2018-05-25T02:59:05.855Z,76.90
2018-05-25T03:01:34.136Z,77.10
2018-05-25T03:04:01.651Z,77.10
2018-05-25T03:06:29.171Z,76.60
2018-05-25T03:08:56.684Z,76.80
2018-05-25T03:11:24.219Z,77.00
2018-05-25T03:13:51.748Z,77.20
2018-05-25T03:16:19.271Z,77.70
2018-05-25T03:18:46.791Z,77.30
2018-05-25T03:21:14.315Z,77.50
2018-05-25T03:23:41.832Z,77.60
2018-05-25T03:26:09.366Z,77.80
2018-05-25T03:28:36.894Z,77.80
2018-05-25T03:31:05.183Z,77.60
2018-05-25T03:33:32.714Z,77.60
2018-05-25T03:36:00.242Z,78.20
2018-05-25T03:38:27.756Z,77.60
2018-05-25T03:40:56.034Z,77.50
2018-05-25T03:43:23.547Z,77.50
2018-05-25T03:45:51.068Z,77.70
2018-05-25T03:48:18.591Z,77.70
2018-05-25T03:50:46.111Z,77.80
2018-05-25T03:53:13.627Z,77.70
2018-05-25T03:55:41.906Z,77.70
2018-05-25T03:58:10.442Z,77.70
2018-05-25T04:00:49.710Z,77.60
2018-05-25T04:03:17.856Z,77.60
2018-05-25T04:05:45.376Z,77.40
2018-05-25T04:08:12.908Z,77.50
2018-05-25T04:10:41.686Z,77.30
2018-05-25T04:13:10.068Z,77.30
2018-05-25T04:15:37.587Z,77.30
2018-05-25T04:18:05.107Z,77.30
2018-05-25T04:20:32.639Z,77.10
2018-05-25T04:23:00.160Z,77.40
2018-05-25T04:25:27.688Z,77.40
2018-05-25T04:27:55.215Z,77.30
2018-05-25T04:30:22.739Z,77.30
2018-05-25T04:32:50.280Z,77.20
2018-05-25T04:35:17.808Z,76.90
2018-05-25T04:37:45.325Z,76.70
2018-05-25T04:40:12.843Z,76.60
2018-05-25T04:42:40.359Z,76.80
2018-05-25T04:45:07.897Z,76.60
2018-05-25T04:47:35.414Z,76.60
2018-05-25T04:50:02.931Z,76.30
2018-05-25T04:52:30.485Z,76.30
2018-05-25T04:54:57.987Z,76.10
2018-05-25T04:57:25.503Z,76.20
2018-05-25T04:59:53.024Z,76.40
2018-05-25T05:02:20.559Z,76.10
2018-05-25T05:04:48.090Z,76.00
2018-05-25T05:07:15.607Z,76.20
2018-05-25T05:09:43.123Z,76.10
2018-05-25T05:12:10.639Z,75.90
2018-05-25T05:14:38.159Z,75.90
2018-05-25T05:17:05.697Z,75.70
2018-05-25T05:19:33.263Z,75.70
2018-05-25T05:22:00.795Z,76.10
2018-05-25T05:24:28.318Z,76.10
2018-05-25T05:26:55.844Z,75.80
2018-05-25T05:29:23.372Z,75.50
2018-05-25T05:31:50.884Z,75.60
2018-05-25T05:34:18.407Z,75.30
2018-05-25T05:36:45.968Z,75.20
2018-05-25T05:39:13.499Z,75.00
2018-05-25T05:41:41.014Z,74.90
2018-05-25T05:44:08.538Z,74.70
2018-05-25T05:46:36.063Z,74.50
2018-05-25T05:49:04.352Z,74.40
2018-05-25T05:51:31.884Z,74.40
2018-05-25T05:53:59.400Z,74.20
2018-05-25T05:56:26.907Z,73.90
2018-05-25T05:58:54.440Z,74.20
2018-05-25T06:01:21.964Z,73.80
2018-05-25T06:03:49.496Z,73.60
2018-05-25T06:06:17.040Z,72.70
2018-05-25T06:08:44.591Z,72.50
2018-05-25T06:11:12.543Z,72.50
2018-05-25T06:13:40.118Z,72.10
2018-05-25T06:16:07.645Z,71.60
2018-05-25T06:18:35.184Z,71.40
2018-05-25T06:21:02.698Z,70.70
2018-05-25T06:23:30.983Z,70.40
2018-05-25T06:25:58.516Z,70.40
2018-05-25T06:28:26.032Z,69.60
2018-05-25T06:30:54.361Z,69.30
2018-05-25T06:33:21.884Z,69.20
2018-05-25T06:35:49.415Z,69.20
2018-05-25T06:38:16.935Z,68.40
2018-05-25T06:40:44.498Z,67.60
2018-05-25T06:43:12.023Z,67.50
2018-05-25T06:45:39.551Z,67.00
2018-05-25T06:48:07.074Z,64.30
2018-05-25T06:50:34.591Z,62.60
2018-05-25T06:53:02.879Z,60.70
2018-05-25T06:55:30.444Z,60.60
2018-05-25T06:57:58.035Z,60.10
2018-05-25T07:00:26.309Z,56.80
2018-05-25T07:02:53.843Z,56.60
2018-05-25T07:05:21.361Z,55.90
2018-05-25T07:07:48.885Z,54.90
2018-05-25T07:10:16.405Z,54.40
2018-05-25T07:12:43.931Z,54.00
2018-05-25T07:15:11.446Z,53.90
2018-05-25T07:17:38.963Z,54.10
2018-05-25T07:20:06.479Z,53.00
2018-05-25T07:22:34.000Z,51.30
2018-05-25T07:25:01.533Z,51.30
2018-05-25T07:27:29.074Z,48.80
2018-05-25T07:29:56.595Z,48.60
2018-05-25T07:32:24.120Z,48.20
2018-05-25T07:34:51.640Z,48.50
2018-05-25T07:37:19.151Z,47.90
2018-05-25T07:39:46.672Z,48.30
2018-05-25T07:42:14.195Z,48.50
2018-05-25T07:44:41.773Z,48.20
2018-05-25T07:47:09.294Z,48.40
2018-05-25T07:49:37.617Z,47.10
2018-05-25T07:52:05.157Z,47.10
2018-05-25T07:54:32.681Z,48.20
2018-05-25T07:57:00.198Z,49.10
2018-05-25T07:59:27.714Z,49.70
2018-05-25T08:01:55.239Z,48.00
2018-05-25T08:04:22.756Z,46.20
2018-05-25T08:06:50.280Z,43.60
2018-05-25T08:09:17.807Z,41.10
2018-05-25T08:11:45.341Z,39.30
2018-05-25T08:14:12.855Z,39.60
2018-05-25T08:16:40.369Z,39.90
2018-05-25T08:19:07.892Z,40.20
2018-05-25T08:21:35.415Z,39.80
2018-05-25T08:24:02.936Z,39.70
2018-05-25T08:26:30.473Z,40.40
2018-05-25T08:28:58.007Z,40.30
2018-05-25T08:31:25.527Z,40.60
2018-05-25T08:33:53.044Z,41.00
2018-05-25T08:36:20.564Z,42.30
2018-05-25T08:38:48.860Z,43.10
2018-05-25T08:41:16.413Z,43.10
2018-05-25T08:43:43.931Z,44.00
2018-05-25T08:46:11.677Z,44.20
2018-05-25T08:48:38.998Z,44.60
2018-05-25T08:51:06.521Z,45.50
2018-05-25T08:53:34.043Z,45.60
2018-05-25T08:56:01.588Z,45.60
2018-05-25T08:58:29.120Z,45.80
2018-05-25T09:00:56.638Z,46.50
2018-05-25T09:03:24.151Z,46.70
2018-05-25T09:05:52.441Z,46.50
2018-05-25T09:08:19.962Z,46.50
2018-05-25T09:10:47.488Z,46.90
2018-05-25T09:13:15.007Z,47.10
2018-05-25T09:15:42.539Z,47.00
2018-05-25T09:18:10.063Z,47.10
2018-05-25T09:20:37.580Z,46.80
2018-05-25T09:23:05.099Z,47.20
2018-05-25T09:25:32.627Z,46.50
2018-05-25T09:28:00.139Z,46.50
2018-05-25T09:30:27.655Z,46.40
2018-05-25T09:32:55.179Z,46.80
2018-05-25T09:35:22.959Z,46.80
2018-05-25T09:37:50.471Z,46.10
2018-05-25T09:40:17.995Z,45.70
2018-05-25T09:42:45.504Z,45.60
2018-05-25T09:45:13.305Z,46.40
2018-05-25T09:47:40.828Z,46.10
2018-05-25T09:50:08.343Z,46.10
2018-05-25T09:52:35.867Z,45.70
2018-05-25T09:55:03.375Z,46.40
2018-05-25T09:57:30.907Z,46.40
2018-05-25T09:59:58.442Z,46.30
2018-05-25T10:02:25.967Z,45.70
2018-05-25T10:04:53.487Z,45.50
2018-05-25T10:07:21.007Z,45.70
2018-05-25T10:09:49.031Z,46.70
2018-05-25T10:12:16.553Z,46.80
2018-05-25T10:14:44.594Z,46.70
2018-05-25T10:17:12.107Z,46.70
2018-05-25T10:19:40.231Z,46.70
2018-05-25T10:22:07.744Z,47.20
2018-05-25T10:24:35.271Z,46.20
2018-05-25T10:27:02.810Z,46.00
2018-05-25T10:29:30.324Z,45.00
2018-05-25T10:31:57.883Z,43.70
2018-05-25T10:34:25.401Z,44.40
2018-05-25T10:36:52.922Z,44.80
2018-05-25T10:39:20.540Z,45.10
2018-05-25T10:41:48.086Z,44.60
2018-05-25T10:44:15.610Z,45.80
2018-05-25T10:46:43.123Z,45.90
2018-05-25T10:49:10.630Z,46.40
2018-05-25T10:51:38.140Z,46.10
2018-05-25T10:54:05.874Z,45.10
2018-05-25T10:56:33.444Z,45.90
2018-05-25T10:59:00.955Z,46.30
2018-05-25T11:01:28.485Z,46.50
2018-05-25T11:03:56.009Z,46.60
2018-05-25T11:06:23.527Z,47.80
2018-05-25T11:08:51.046Z,47.10
2018-05-25T11:11:18.575Z,46.90
2018-05-25T11:13:46.855Z,47.20
2018-05-25T11:16:14.367Z,47.20
2018-05-25T11:18:41.887Z,46.80
2018-05-25T11:21:09.399Z,46.50
2018-05-25T11:23:36.921Z,46.60
2018-05-25T11:26:04.440Z,46.00
2018-05-25T11:28:31.955Z,47.10
2018-05-25T11:30:59.467Z,45.80
2018-05-25T11:33:26.980Z,45.60
2018-05-25T11:35:54.500Z,45.30
2018-05-25T11:38:22.012Z,46.70
2018-05-25T11:40:49.543Z,45.90
2018-05-25T11:43:17.060Z,46.20
2018-05-25T11:45:45.362Z,46.50
2018-05-25T11:48:12.881Z,46.50
2018-05-25T11:50:40.397Z,46.90
2018-05-25T11:53:07.907Z,46.70
2018-05-25T11:55:35.427Z,46.70
2018-05-25T11:58:02.943Z,47.00
2018-05-25T12:00:30.451Z,47.20
2018-05-25T12:02:57.975Z,47.10
2018-05-25T12:05:25.487Z,47.70
2018-05-25T12:07:53.005Z,47.40
2018-05-25T12:10:20.512Z,47.90
2018-05-25T12:12:48.024Z,45.90
2018-05-25T12:15:15.540Z,45.40
2018-05-25T12:17:43.052Z,45.70
2018-05-25T12:20:10.567Z,45.90
2018-05-25T12:22:38.087Z,45.70
2018-05-25T12:25:05.616Z,46.50
2018-05-25T12:27:33.127Z,46.60
2018-05-25T12:30:00.639Z,45.80
2018-05-25T12:32:28.152Z,46.70
2018-05-25T12:34:55.707Z,47.60
2018-05-25T12:37:23.228Z,47.90
2018-05-25T12:39:51.431Z,47.90
2018-05-25T12:42:18.939Z,47.70
2018-05-25T12:44:58.415Z,48.00
2018-05-25T12:47:25.956Z,48.60
2018-05-25T12:49:53.479Z,47.90
2018-05-25T12:52:20.994Z,47.50
2018-05-25T12:54:49.234Z,47.10
2018-05-25T12:57:17.508Z,45.40
2018-05-25T12:59:45.016Z,45.40
2018-05-25T13:02:12.528Z,44.90
2018-05-25T13:04:40.810Z,46.10
2018-05-25T13:07:08.328Z,46.10
2018-05-25T13:09:35.843Z,46.80
2018-05-25T13:12:03.363Z,46.80
2018-05-25T13:14:30.879Z,45.50
2018-05-25T13:16:58.391Z,46.40
2018-05-25T13:19:25.899Z,46.30
2018-05-25T13:21:53.414Z,45.90
2018-05-25T13:24:20.927Z,46.50
2018-05-25T13:26:48.440Z,46.20
2018-05-25T13:29:15.956Z,45.80
2018-05-25T13:31:43.496Z,46.00
2018-05-25T13:34:11.513Z,46.00
2018-05-25T13:36:39.054Z,46.50
2018-05-25T13:39:06.576Z,46.80
2018-05-25T13:41:34.088Z,46.50
2018-05-25T13:44:01.600Z,46.20
2018-05-25T13:46:29.112Z,46.20
2018-05-25T13:48:56.623Z,46.50
2018-05-25T13:51:24.152Z,47.20
2018-05-25T13:53:51.663Z,47.20
2018-05-25T13:56:19.176Z,46.40
2018-05-25T13:58:47.453Z,46.80
2018-05-25T14:01:15.331Z,46.80
2018-05-25T14:03:42.835Z,47.20
2018-05-25T14:06:10.348Z,47.20
2018-05-25T14:08:37.859Z,47.00
2018-05-25T14:11:05.372Z,47.30
2018-05-25T14:13:32.895Z,46.10
2018-05-25T14:16:00.420Z,45.90
2018-05-25T14:18:27.932Z,45.90
2018-05-25T14:20:55.455Z,46.00
2018-05-25T14:23:23.755Z,46.20
2018-05-25T14:25:51.267Z,46.10
2018-05-25T14:28:18.802Z,46.70
2018-05-25T14:30:46.323Z,46.90
2018-05-25T14:33:13.836Z,47.20
2018-05-25T14:35:41.347Z,47.50
2018-05-25T14:38:08.867Z,48.20
2018-05-25T14:40:36.378Z,48.30
2018-05-25T14:43:03.892Z,48.00
2018-05-25T14:45:31.408Z,48.40
2018-05-25T14:47:59.702Z,48.70
2018-05-25T14:50:27.540Z,48.60
2018-05-25T14:52:55.109Z,48.00
2018-05-25T14:55:22.604Z,48.30
2018-05-25T14:57:50.119Z,48.80
2018-05-25T15:00:17.640Z,48.40
2018-05-25T15:02:45.559Z,48.20
2018-05-25T15:05:13.079Z,48.30
2018-05-25T15:07:40.593Z,48.70
2018-05-25T15:10:08.868Z,48.10
2018-05-25T15:12:36.380Z,48.10
2018-05-25T15:15:03.894Z,47.90
2018-05-25T15:17:31.416Z,47.80
2018-05-25T15:19:58.933Z,48.00
2018-05-25T15:22:26.460Z,47.90
2018-05-25T15:24:53.983Z,47.90
2018-05-25T15:27:21.531Z,48.00
2018-05-25T15:29:49.070Z,48.50
2018-05-25T15:32:16.583Z,49.50
2018-05-25T15:34:44.092Z,48.40
2018-05-25T15:37:11.605Z,48.20
2018-05-25T15:39:39.115Z,48.10
2018-05-25T15:42:06.631Z,48.00
2018-05-25T15:44:34.911Z,48.90
2018-05-25T15:47:02.438Z,48.80
2018-05-25T15:49:29.955Z,49.00
2018-05-25T15:51:57.468Z,49.10
2018-05-25T15:54:24.987Z,49.40
2018-05-25T15:56:52.499Z,50.00
2018-05-25T15:59:20.044Z,49.70
2018-05-25T16:01:47.555Z,49.20
2018-05-25T16:04:15.072Z,49.30
2018-05-25T16:06:42.592Z,49.30
2018-05-25T16:09:10.104Z,49.80
2018-05-25T16:11:38.387Z,49.90
2018-05-25T16:14:05.901Z,49.90
2018-05-25T16:16:33.403Z,49.80
2018-05-25T16:19:00.912Z,49.40
2018-05-25T16:21:28.422Z,49.50
2018-05-25T16:23:56.695Z,48.50
2018-05-25T16:26:24.223Z,48.50
2018-05-25T16:28:51.777Z,48.40
2018-05-25T16:31:19.266Z,47.80
2018-05-25T16:33:46.775Z,47.90
2018-05-25T16:36:14.289Z,48.30
2018-05-25T16:38:41.798Z,48.00
2018-05-25T16:41:09.312Z,48.30
2018-05-25T16:43:36.828Z,48.50
2018-05-25T16:46:04.353Z,48.60
2018-05-25T16:48:31.882Z,48.60
2018-05-25T16:50:59.391Z,48.80
2018-05-25T16:53:26.903Z,48.60
2018-05-25T16:55:54.450Z,48.80
2018-05-25T16:58:21.947Z,48.70
2018-05-25T17:00:49.573Z,49.40
2018-05-25T17:03:17.103Z,48.10
2018-05-25T17:05:44.616Z,48.10
2018-05-25T17:08:12.123Z,48.30
2018-05-25T17:10:39.640Z,48.10
2018-05-25T17:13:07.915Z,48.20
2018-05-25T17:15:35.435Z,48.20
2018-05-25T17:18:02.960Z,48.50
2018-05-25T17:20:30.487Z,48.70
2018-05-25T17:22:58.778Z,48.90
2018-05-25T17:25:26.291Z,48.80
2018-05-25T17:27:53.803Z,49.10
2018-05-25T17:30:21.316Z,49.70
2018-05-25T17:32:48.826Z,50.00
2018-05-25T17:35:16.343Z,50.40
2018-05-25T17:37:43.851Z,50.30
2018-05-25T17:40:11.364Z,51.00
2018-05-25T17:42:38.867Z,50.70
2018-05-25T17:45:06.383Z,51.10
2018-05-25T17:47:33.887Z,51.40
2018-05-25T17:50:01.403Z,51.40
2018-05-25T17:52:28.921Z,51.30
2018-05-25T17:54:56.443Z,51.40
2018-05-25T17:57:24.738Z,52.10
2018-05-25T17:59:53.156Z,52.00
2018-05-25T18:02:20.677Z,52.00
2018-05-25T18:04:48.187Z,52.00
2018-05-25T18:07:15.695Z,52.20
2018-05-25T18:09:43.220Z,52.10
2018-05-25T18:12:10.736Z,52.60
2018-05-25T18:14:38.251Z,52.80
2018-05-25T18:17:05.774Z,52.80
2018-05-25T18:19:33.279Z,52.80
2018-05-25T18:22:00.794Z,53.20
2018-05-25T18:24:28.387Z,52.80
2018-05-25T18:26:55.898Z,53.00
2018-05-25T18:29:23.416Z,52.90
2018-05-25T18:31:51.695Z,53.30
2018-05-25T18:34:19.212Z,53.10
2018-05-25T18:36:46.737Z,53.20
2018-05-25T18:39:14.251Z,53.20
2018-05-25T18:41:41.764Z,53.50
2018-05-25T18:44:09.275Z,53.40
2018-05-25T18:46:36.788Z,53.10
2018-05-25T18:49:04.301Z,53.10
2018-05-25T18:51:31.811Z,53.20
2018-05-25T18:54:11.283Z,53.20
2018-05-25T18:56:38.794Z,53.40
2018-05-25T18:59:06.316Z,53.50
2018-05-25T19:01:34.539Z,53.50
2018-05-25T19:04:03.063Z,54.40
2018-05-25T19:06:31.410Z,54.00
2018-05-25T19:08:58.919Z,54.20
2018-05-25T19:11:26.431Z,54.40
2018-05-25T19:13:53.964Z,54.40
2018-05-25T19:16:21.487Z,54.70
2018-05-25T19:18:48.994Z,55.30
2018-05-25T19:21:16.535Z,56.00
2018-05-25T19:23:44.051Z,55.80
2018-05-25T19:26:11.576Z,55.70
2018-05-25T19:28:39.091Z,55.90
2018-05-25T19:31:06.607Z,56.00
2018-05-25T19:33:34.123Z,55.90
2018-05-25T19:36:01.647Z,56.10
2018-05-25T19:38:29.151Z,56.40
2018-05-25T19:40:57.428Z,56.70
2018-05-25T19:43:24.947Z,56.70
2018-05-25T19:45:52.455Z,56.60
2018-05-25T19:48:19.981Z,56.90
2018-05-25T19:50:47.504Z,57.40
2018-05-25T19:53:15.020Z,57.60
2018-05-25T19:55:42.884Z,57.60
2018-05-25T19:58:10.404Z,57.80
2018-05-25T20:00:37.928Z,58.10
2018-05-25T20:03:05.452Z,58.10
2018-05-25T20:05:32.960Z,59.00
2018-05-25T20:08:00.475Z,58.50
2018-05-25T20:10:27.986Z,58.80
2018-05-25T20:12:55.501Z,58.50
2018-05-25T20:15:23.018Z,58.70
2018-05-25T20:17:50.530Z,59.50
2018-05-25T20:20:18.803Z,59.20
2018-05-25T20:22:46.318Z,59.10
2018-05-25T20:25:13.848Z,59.40
2018-05-25T20:27:41.365Z,59.70
2018-05-25T20:30:08.887Z,60.00
2018-05-25T20:32:36.405Z,60.00
2018-05-25T20:35:03.960Z,60.30
2018-05-25T20:37:31.459Z,61.20
2018-05-25T20:39:58.972Z,61.70
2018-05-25T20:42:26.488Z,61.40
2018-05-25T20:44:54.000Z,61.10
2018-05-25T20:47:21.519Z,61.30
2018-05-25T20:49:49.044Z,61.60
2018-05-25T20:52:16.609Z,61.90
2018-05-25T20:54:44.104Z,61.90
2018-05-25T20:57:11.620Z,61.70
2018-05-25T20:59:39.144Z,61.90
2018-05-25T21:02:06.667Z,62.40
2018-05-25T21:04:34.227Z,62.40
2018-05-25T21:07:01.743Z,62.60
2018-05-25T21:09:30.031Z,63.00
2018-05-25T21:11:57.552Z,62.90
2018-05-25T21:14:25.077Z,63.10
2018-05-25T21:16:52.599Z,63.40
2018-05-25T21:19:20.880Z,64.20
2018-05-25T21:21:48.404Z,64.10
2018-05-25T21:24:15.929Z,63.90
2018-05-25T21:26:43.460Z,64.30
2018-05-25T21:29:11.744Z,64.30
2018-05-25T21:31:39.275Z,64.30
2018-05-25T21:34:06.791Z,64.00
2018-05-25T21:36:34.316Z,63.80
2018-05-25T21:39:02.595Z,64.30
2018-05-25T21:41:30.111Z,64.20
2018-05-25T21:43:57.639Z,63.80
2018-05-25T21:46:25.162Z,63.70
2018-05-25T21:48:52.679Z,63.40
2018-05-25T21:51:20.201Z,64.70
2018-05-25T21:53:48.485Z,64.70
2018-05-25T21:56:16.008Z,65.30
2018-05-25T21:58:43.527Z,64.10
2018-05-25T22:01:11.041Z,63.90
2018-05-25T22:03:38.564Z,64.20
2018-05-25T22:06:06.096Z,64.70
2018-05-25T22:08:33.621Z,64.90
2018-05-25T22:11:01.139Z,64.60
2018-05-25T22:13:28.663Z,64.40
2018-05-25T22:15:56.183Z,64.50
2018-05-25T22:18:23.708Z,65.50
2018-05-25T22:20:51.232Z,64.90
2018-05-25T22:23:19.520Z,65.10
2018-05-25T22:25:47.036Z,65.10
2018-05-25T22:28:14.547Z,65.00
2018-05-25T22:30:42.072Z,65.70
2018-05-25T22:33:10.383Z,65.60
2018-05-25T22:35:37.903Z,65.40
2018-05-25T22:38:05.429Z,66.40
2018-05-25T22:40:32.967Z,66.70
2018-05-25T22:43:12.178Z,66.50
2018-05-25T22:45:51.500Z,66.30
2018-05-25T22:48:31.840Z,65.90
2018-05-25T22:51:11.196Z,66.50
2018-05-25T22:56:39.256Z,66.60
2018-05-25T22:59:06.781Z,67.10
2018-05-25T23:01:34.303Z,66.90
2018-05-25T23:04:01.822Z,67.10
2018-05-25T23:06:29.339Z,66.70
2018-05-25T23:08:57.641Z,66.90
2018-05-25T23:11:25.164Z,66.90
2018-05-25T23:13:52.689Z,66.60
2018-05-25T23:16:20.211Z,66.80
2018-05-25T23:18:48.491Z,66.60
2018-05-25T23:21:16.003Z,66.50
2018-05-25T23:23:43.514Z,66.60
2018-05-25T23:26:11.032Z,67.40
2018-05-25T23:28:38.571Z,67.20
2018-05-25T23:31:06.091Z,67.00
2018-05-25T23:33:35.870Z,67.00
2018-05-25T23:36:03.391Z,67.10
2018-05-25T23:38:30.906Z,67.20
2018-05-25T23:40:59.191Z,68.00
2018-05-25T23:43:26.711Z,67.90
2018-05-25T23:45:54.224Z,67.60
2018-05-25T23:48:21.751Z,67.50
2018-05-25T23:50:49.276Z,67.50
2018-05-25T23:53:16.799Z,67.50
2018-05-25T23:55:44.321Z,67.70
2018-05-25T23:58:11.838Z,68.00
